Allure of the Seas — C6XS8 — position and weather

sailwx.info

Track history (hours):
 
Tides and Currents Weather Stations Pressure Air Temp Water Temp Dewpoint Dewpoint Depression Visibility Wind Speed Wind Dir Waves Ship Positions

Allure of the Seas

Last reported at 2017-Aug-22 12:00 UTC. Time now 2017-Aug-22 22:30 UTC.
Position N 19°42' W 072°12'.

Length 362 m; draft 9.3 m.

Type: Passenger vessel. MMSI: 311020700.

Wind from 180 at 5 knots

Barometer 1016.0 mb
Air temperature 28.0 ° C
Visibility: greater than 10.8 NM
Water temperature 29.0 ° C

Date/timePositionNaut miles runAvg speedWind from/ knotsBaromVisibWave heightAir tempDewpointWater temp
2017-Aug-22 12:00N 19°42' W 072°12'17814.9 180 / 51016.010.8 28.0 29.0
2017-Aug-22 00:00N 21°06' W 075°00'21017.5 090 / 111015.710.8 29.4 30.7
2017-Aug-21 12:00N 22°36' W 078°24'19716.3 090 / 241016.010.8 29.0 31.0
2017-Aug-20 23:52N 25°41' W 079°38'514.8
2017-Aug-20 23:30N 25°46' W 079°39'713.3
2017-Aug-20 23:00N 25°53' W 079°40'813.9
2017-Aug-20 22:26N 25°58' W 079°47'714.1
2017-Aug-20 21:58N 26°01' W 079°53'713.5
2017-Aug-20 21:29N 26°04' W 079°60'611.5
2017-Aug-20 21:00N 26°06' W 080°06'1 0.1
2017-Aug-20 09:49N 26°05' W 080°07'2 5.4
2017-Aug-20 09:30N 26°06' W 080°05'511.0
2017-Aug-20 09:00N 26°05' W 079°59'714.4
2017-Aug-20 08:30N 26°01' W 079°52'816.6
2017-Aug-20 08:00N 25°57' W 079°44'714.9
2017-Aug-20 07:30N 25°51' W 079°40'816.8
2017-Aug-20 07:00N 25°42' W 079°40'1019.7
2017-Aug-20 06:30N 25°33' W 079°39'19415.5
2017-Aug-19 18:00N 23°30' W 082°24'8814.7 030 / 151016.010.8 31.026.931.0
2017-Aug-19 12:00N 23°00' W 083°54'22817.8 100 / 141015.010.8 28.9 31.3
2017-Aug-18 23:10N 20°30' W 086°59'1 6.3
2017-Aug-18 23:00N 20°29' W 086°59'0 0.0
2017-Aug-18 11:44N 20°29' W 086°59'0 0.8
2017-Aug-18 11:29N 20°29' W 086°59'4 8.3
2017-Aug-18 11:00N 20°33' W 086°58'  
2017-Aug-15 00:00N 21°12' W 075°12'36615.2 070 / 211015.010.8 28.025.230.5
2017-Aug-13 23:52N 25°44' W 079°39'614.6
2017-Aug-13 23:27N 25°50' W 079°39'1414.3
2017-Aug-13 22:30N 26°01' W 079°49'815.8
2017-Aug-13 22:01N 26°04' W 079°57'713.6
2017-Aug-13 21:30N 26°06' W 080°04'3 5.3
2017-Aug-13 21:00N 26°05' W 080°07'0 0.0
2017-Aug-13 09:46N 26°05' W 080°07'1 3.3
2017-Aug-13 09:30N 26°06' W 080°06'5 9.1
2017-Aug-13 09:00N 26°06' W 080°01'4 8.7
2017-Aug-13 08:30N 26°06' W 079°56'611.5
2017-Aug-13 08:00N 26°07' W 079°50'612.0
2017-Aug-13 07:30N 26°08' W 079°43'611.7
2017-Aug-13 07:00N 26°09' W 079°37'611.3
2017-Aug-13 06:30N 26°11' W 079°31'612.2
2017-Aug-13 06:00N 26°13' W 079°25'612.5
2017-Aug-13 05:30N 26°13' W 079°18'9517.2
2017-Aug-13 00:00N 25°48' W 077°36'14115.7 100 / 111016.010.8 28.025.230.0
2017-Aug-12 15:00N 24°54' W 075°12'   070 / 131017.010.8 29.026.228.0
Track history (hours):
 
Tides and Currents Weather Stations Pressure Air Temp Water Temp Dewpoint Dewpoint Depression Visibility Wind Speed Wind Dir Waves Ship Positions

Allure of the Seas

Last reported at 2017-Aug-22 12:00 UTC. Time now 2017-Aug-22 22:30 UTC.
Position N 19°42' W 072°12'.

Length 362 m; draft 9.3 m.

Type: Passenger vessel. MMSI: 311020700.

Wind from 180 at 5 knots

Barometer 1016.0 mb
Air temperature 28.0 ° C
Visibility: greater than 10.8 NM
Water temperature 29.0 ° C

Date/timePositionNaut miles runAvg speedWind from/ knotsBaromVisibWave heightAir tempDewpointWater temp
2017-Aug-22 12:00N 19°42' W 072°12'17814.9 180 / 51016.010.8 28.0 29.0
2017-Aug-22 00:00N 21°06' W 075°00'21017.5 090 / 111015.710.8 29.4 30.7
2017-Aug-21 12:00N 22°36' W 078°24'19716.3 090 / 241016.010.8 29.0 31.0
2017-Aug-20 23:52N 25°41' W 079°38'514.8
2017-Aug-20 23:30N 25°46' W 079°39'713.3
2017-Aug-20 23:00N 25°53' W 079°40'813.9
2017-Aug-20 22:26N 25°58' W 079°47'714.1
2017-Aug-20 21:58N 26°01' W 079°53'713.5
2017-Aug-20 21:29N 26°04' W 079°60'611.5
2017-Aug-20 21:00N 26°06' W 080°06'1 0.1
2017-Aug-20 09:49N 26°05' W 080°07'2 5.4
2017-Aug-20 09:30N 26°06' W 080°05'511.0
2017-Aug-20 09:00N 26°05' W 079°59'714.4
2017-Aug-20 08:30N 26°01' W 079°52'816.6
2017-Aug-20 08:00N 25°57' W 079°44'714.9
2017-Aug-20 07:30N 25°51' W 079°40'816.8
2017-Aug-20 07:00N 25°42' W 079°40'1019.7
2017-Aug-20 06:30N 25°33' W 079°39'19415.5
2017-Aug-19 18:00N 23°30' W 082°24'8814.7 030 / 151016.010.8 31.026.931.0
2017-Aug-19 12:00N 23°00' W 083°54'22817.8 100 / 141015.010.8 28.9 31.3
2017-Aug-18 23:10N 20°30' W 086°59'1 6.3
2017-Aug-18 23:00N 20°29' W 086°59'0 0.0
2017-Aug-18 11:44N 20°29' W 086°59'0 0.8
2017-Aug-18 11:29N 20°29' W 086°59'4 8.3
2017-Aug-18 11:00N 20°33' W 086°58'  
2017-Aug-15 00:00N 21°12' W 075°12'36615.2 070 / 211015.010.8 28.025.230.5
2017-Aug-13 23:52N 25°44' W 079°39'614.6
2017-Aug-13 23:27N 25°50' W 079°39'1414.3
2017-Aug-13 22:30N 26°01' W 079°49'815.8
2017-Aug-13 22:01N 26°04' W 079°57'713.6
2017-Aug-13 21:30N 26°06' W 080°04'3 5.3
2017-Aug-13 21:00N 26°05' W 080°07'0 0.0
2017-Aug-13 09:46N 26°05' W 080°07'1 3.3
2017-Aug-13 09:30N 26°06' W 080°06'5 9.1
2017-Aug-13 09:00N 26°06' W 080°01'4 8.7
2017-Aug-13 08:30N 26°06' W 079°56'611.5
2017-Aug-13 08:00N 26°07' W 079°50'612.0
2017-Aug-13 07:30N 26°08' W 079°43'611.7
2017-Aug-13 07:00N 26°09' W 079°37'611.3
2017-Aug-13 06:30N 26°11' W 079°31'612.2
2017-Aug-13 06:00N 26°13' W 079°25'612.5
2017-Aug-13 05:30N 26°13' W 079°18'9517.2
2017-Aug-13 00:00N 25°48' W 077°36'14115.7 100 / 111016.010.8 28.025.230.0
2017-Aug-12 15:00N 24°54' W 075°12'   070 / 131017.010.8 29.026.228.0

Dump ship's entire track history